This is the latest recevied weather packets stored in our database for station/object YN1ZSC-13. If no packets are shown the sender has not sent any weather packets the latest 10 day(s).
| Time | Temp. | Humidity | Pressure | Rain* | Wind** | Luminosity | Snow |
|---|---|---|---|---|---|---|---|
| 1777927420 | 36.67° C | 34% | 1007 hPa | 0 mm | - | - | - |
| 1777926820 | 33.89° C | 38% | 1007 hPa | 0 mm | - | - | - |
| 1777926219 | 34.44° C | 38% | 1008 hPa | 0 mm | - | - | - |
| 1777925619 | 34.44° C | 38% | 1008 hPa | 0 mm | - | - | - |
| 1777925018 | 33.89° C | 38% | 1008 hPa | 0 mm | - | - | - |
| 1777924418 | 34.44° C | 38% | 1008 hPa | 0 mm | - | - | - |
| 1777923817 | 33.89° C | 39% | 1008 hPa | 0 mm | - | - | - |
| 1777923216 | 33.89° C | 39% | 1008 hPa | 0 mm | - | - | - |
| 1777922616 | 33.89° C | 39% | 1009 hPa | 0 mm | - | - | - |
| 1777922015 | 33.89° C | 39% | 1009 hPa | 0 mm | - | - | - |
| 1777921415 | 33.33° C | 39% | 1009 hPa | 0 mm | - | - | - |
| 1777920814 | 33.33° C | 38% | 1009 hPa | 0 mm | - | - | - |
| 1777920214 | 33.89° C | 38% | 1010 hPa | 0 mm | - | - | - |
| 1777919613 | 33.33° C | 42% | 1010 hPa | 0 mm | - | - | - |
| 1777918412 | 33.33° C | 44% | 1011 hPa | 0 mm | - | - | - |
| 1777917811 | 33.33° C | 44% | 1011 hPa | 0 mm | - | - | - |
| 1777917211 | 33.89° C | 44% | 1011 hPa | 0 mm | - | - | - |
| 1777916610 | 34.44° C | 43% | 1011 hPa | 0 mm | - | - | - |
| 1777916010 | 31.67° C | 50% | 1011 hPa | 0 mm | - | - | - |
| 1777915409 | 31.11° C | 50% | 1012 hPa | 0 mm | - | - | - |
| 1777914809 | 31.11° C | 50% | 1012 hPa | 0 mm | - | - | - |
| 1777914208 | 31.11° C | 49% | 1012 hPa | 0 mm | - | - | - |
| 1777913607 | 31.67° C | 49% | 1012 hPa | 0 mm | - | - | - |
| 1777913007 | 30° C | 56% | 1012 hPa | 0 mm | - | - | - |
| 1777912406 | 30° C | 56% | 1012 hPa | 0 mm | - | - | - |
* Rain latest hour (hover to see other rain measurements)
** Current wind speed in m/s (hover to see current wind gust speed)